Time;durP1;ratioP1;P1;durP2;ratioP2;P2;SDS_P1;SDS_P2;PMS_P1;PMS_P2;Temp;Humidity;BMP_temperature;BMP_pressure;BME280_temperature;BME280_humidity;BME280_pressure;Samples;Min_cycle;Max_cycle;Signal;HPM_P1;HPM_P2
2021/12/02 00:02:13;;;;;;;7.32;1.38;;;6.50;99.90;;;;;;6134499;23;20021;-89
2021/12/02 00:04:40;;;;;;;12.90;2.08;;;6.00;99.90;;;;;;6134348;23;20021;-90
2021/12/02 00:07:07;;;;;;;13.13;1.73;;;8.20;99.90;;;;;;6159412;23;20013;-90
2021/12/02 00:09:34;;;;;;;6.70;1.52;;;7.10;99.90;;;;;;6134756;23;20104;-89
2021/12/02 00:12:00;;;;;;;4.50;1.20;;;7.60;99.90;;;;;;6159058;23;20367;-89
2021/12/02 00:14:28;;;;;;;3.83;1.13;;;6.20;99.90;;;;;;6159338;23;20025;-89
2021/12/02 00:46:09;;;;;;;;;;;;;;;;;;;;;
2021/12/02 00:48:39;;;;;;;6.32;1.50;;;5.60;99.90;;;;;;5995606;23;20095;-92
2021/12/02 00:51:06;;;;;;;9.77;1.40;;;6.40;99.90;;;;;;5990193;23;20018;-91
2021/12/02 00:53:34;;;;;;;11.07;1.80;;;7.10;99.90;;;;;;6099537;23;20339;-91
2021/12/02 00:56:03;;;;;;;2.05;0.80;;;7.60;99.90;;;;;;6134468;23;20081;-91
2021/12/02 00:58:34;;;;;;;5.10;1.10;;;5.70;99.90;;;;;;6106715;23;20026;-91
2021/12/02 01:01:00;;;;;;;9.90;1.15;;;7.50;99.90;;;;;;6130025;23;20355;-91
2021/12/02 01:03:32;;;;;;;4.53;1.00;;;4.50;99.90;;;;;;6104871;23;20567;-91
2021/12/02 01:05:59;;;;;;;3.20;1.02;;;8.00;99.90;;;;;;6105173;23;20013;-90
2021/12/02 01:08:27;;;;;;;7.40;1.10;;;8.00;99.90;;;;;;6104708;23;20020;-91
2021/12/02 01:10:53;;;;;;;4.15;0.77;;;6.40;99.90;;;;;;6104767;23;20313;-90
2021/12/02 01:13:19;;;;;;;10.55;1.80;;;8.00;99.90;;;;;;6106526;23;20417;-90
2021/12/02 01:15:45;;;;;;;8.02;1.65;;;8.10;99.90;;;;;;6130991;23;20024;-90
2021/12/02 01:18:11;;;;;;;7.50;1.42;;;5.70;99.90;;;;;;6106256;23;20039;-90
2021/12/02 01:20:38;;;;;;;2.33;0.98;;;6.40;99.90;;;;;;6156331;23;20048;-91
2021/12/02 01:23:06;;;;;;;6.53;0.80;;;6.20;99.90;;;;;;6107424;23;20028;-91
2021/12/02 01:25:33;;;;;;;0.75;0.50;;;5.50;99.90;;;;;;6107235;23;20045;-90
2021/12/02 01:28:00;;;;;;;0.95;0.60;;;7.60;99.90;;;;;;6107215;23;20010;-90
2021/12/02 01:30:28;;;;;;;5.97;1.30;;;6.70;99.90;;;;;;6156246;23;20096;-90
2021/12/02 01:33:00;;;;;;;1.67;0.98;;;5.60;99.90;;;;;;6106839;23;20017;-91
2021/12/02 01:35:27;;;;;;;3.25;1.10;;;7.60;99.90;;;;;;6107296;23;20093;-91
2021/12/02 01:37:53;;;;;;;5.85;1.40;;;7.00;99.90;;;;;;6106704;23;20013;-91
2021/12/02 01:40:19;;;;;;;2.83;0.75;;;6.80;99.90;;;;;;6107119;23;20045;-91
2021/12/02 01:42:50;;;;;;;4.18;0.60;;;5.00;99.90;;;;;;6155904;23;20022;-91
2021/12/02 01:45:20;;;;;;;2.33;0.90;;;6.50;99.90;;;;;;6106775;23;20025;-91
2021/12/02 01:47:51;;;;;;;2.92;0.93;;;7.60;99.90;;;;;;6106979;23;20020;-91
2021/12/02 01:50:20;;;;;;;2.42;0.65;;;5.50;99.90;;;;;;6106182;23;20032;-91
2021/12/02 01:52:53;;;;;;;2.67;0.70;;;6.90;99.90;;;;;;6155563;23;20025;-91
2021/12/02 01:55:19;;;;;;;5.95;0.70;;;5.90;99.90;;;;;;6107053;23;20017;-91
2021/12/02 01:57:59;;;;;;;1.63;0.65;;;7.40;99.90;;;;;;6156049;23;20018;-92
2021/12/02 02:00:33;;;;;;;2.95;0.80;;;7.20;99.90;;;;;;6106626;23;20021;-91
2021/12/02 02:03:02;;;;;;;4.70;0.70;;;5.70;99.90;;;;;;6107419;23;20056;-91
2021/12/02 02:05:28;;;;;;;1.88;1.40;;;6.90;99.90;;;;;;6106695;23;20018;-91
2021/12/02 02:08:02;;;;;;;3.47;0.93;;;7.20;99.90;;;;;;6107184;23;20013;-91
2021/12/02 02:10:31;;;;;;;3.35;0.93;;;5.30;99.90;;;;;;6106665;23;20376;-92
2021/12/02 02:13:00;;;;;;;3.25;0.98;;;5.00;99.90;;;;;;6106719;23;20021;-91
2021/12/02 02:15:26;;;;;;;3.85;1.10;;;5.70;99.90;;;;;;6130872;23;20017;-91
2021/12/02 02:17:57;;;;;;;7.07;1.05;;;5.60;99.90;;;;;;6106381;23;20021;-91
2021/12/02 02:20:38;;;;;;;7.22;1.48;;;7.20;99.90;;;;;;6107123;23;20017;-91
2021/12/02 02:23:06;;;;;;;7.45;1.30;;;7.80;99.90;;;;;;6130819;23;20017;-91
2021/12/02 02:25:33;;;;;;;6.07;1.38;;;7.10;99.90;;;;;;6106316;23;20048;-91
2021/12/02 02:27:58;;;;;;;5.47;1.35;;;6.90;99.90;;;;;;6106679;23;20024;-91
2021/12/02 02:30:24;;;;;;;6.80;1.63;;;5.80;99.90;;;;;;6106581;23;20013;-91
2021/12/02 02:32:50;;;;;;;8.13;1.23;;;7.80;99.90;;;;;;6106473;23;20028;-90
2021/12/02 02:35:16;;;;;;;7.43;1.38;;;5.90;99.90;;;;;;6130507;23;20022;-90
2021/12/02 02:37:42;;;;;;;12.35;1.48;;;5.80;99.90;;;;;;6106016;23;20331;-90
2021/12/02 02:40:10;;;;;;;5.72;1.73;;;6.80;99.90;;;;;;6106096;23;20022;-90
2021/12/02 02:42:36;;;;;;;6.72;1.40;;;5.10;99.90;;;;;;6130626;23;20459;-90
2021/12/02 02:45:04;;;;;;;3.30;1.20;;;8.30;99.90;;;;;;6105918;23;20049;-90
2021/12/02 02:47:32;;;;;;;14.13;1.40;;;5.10;99.90;;;;;;6130720;23;20028;-90
2021/12/02 02:49:58;;;;;;;10.52;1.25;;;5.20;99.90;;;;;;6105531;23;20013;-90
2021/12/02 02:52:24;;;;;;;10.13;1.67;;;5.90;99.90;;;;;;6106237;23;20021;-91
2021/12/02 02:54:50;;;;;;;6.18;1.35;;;5.30;99.90;;;;;;6130347;23;20424;-90
2021/12/02 02:57:18;;;;;;;10.93;1.40;;;6.30;99.90;;;;;;6105858;23;20018;-90
2021/12/02 03:05:23;;;;;;;8.57;1.30;;;7.50;99.90;;;;;;6129954;23;20108;-90
2021/12/02 03:07:54;;;;;;;17.85;1.70;;;5.60;99.90;;;;;;6106071;23;20018;-90
2021/12/02 03:10:42;;;;;;;10.13;1.70;;;5.60;99.90;;;;;;6105927;23;20028;-90
2021/12/02 03:13:38;;;;;;;7.40;1.08;;;4.80;99.90;;;;;;6125649;23;20078;-90
2021/12/02 03:18:51;;;;;;;6.63;1.20;;;6.50;99.90;;;;;;6125183;23;20018;-90
2021/12/02 03:21:19;;;;;;;15.88;1.35;;;7.90;99.90;;;;;;6076647;23;20026;-90
2021/12/02 03:23:51;;;;;;;6.63;1.35;;;5.20;99.90;;;;;;6076704;23;20417;-90
2021/12/02 03:26:17;;;;;;;5.65;1.30;;;5.90;99.90;;;;;;6076445;23;20022;-90
2021/12/02 03:28:43;;;;;;;4.30;0.93;;;7.50;99.90;;;;;;6076626;23;20018;-90
2021/12/02 03:31:10;;;;;;;1.02;0.75;;;6.10;99.90;;;;;;6100891;23;20336;-89
2021/12/02 03:33:35;;;;;;;0.73;0.57;;;7.10;99.90;;;;;;6100762;23;20025;-90
2021/12/02 03:36:01;;;;;;;2.88;0.90;;;6.60;99.90;;;;;;6100415;23;20089;-91
2021/12/02 03:38:27;;;;;;;1.75;0.80;;;5.60;99.90;;;;;;6100819;23;20024;-90
2021/12/02 03:40:53;;;;;;;4.72;0.75;;;4.60;99.90;;;;;;6100764;23;20010;-89
2021/12/02 03:43:19;;;;;;;4.38;0.73;;;2.50;99.90;;;;;;6076718;23;20116;-90
2021/12/02 03:45:44;;;;;;;5.63;0.73;;;5.60;99.90;;;;;;6076646;23;20014;-90
2021/12/02 03:48:10;;;;;;;2.95;0.63;;;5.70;99.90;;;;;;6076475;23;20020;-90
2021/12/02 03:50:36;;;;;;;2.80;0.73;;;4.60;99.90;;;;;;6100499;23;20021;-90
2021/12/02 03:53:02;;;;;;;6.93;1.08;;;6.00;99.90;;;;;;6125095;23;20068;-90
2021/12/02 03:55:28;;;;;;;7.95;1.10;;;6.60;99.90;;;;;;6124702;23;20025;-90
2021/12/02 03:57:53;;;;;;;7.82;1.10;;;5.90;99.90;;;;;;6076581;23;20014;-90
2021/12/02 04:00:19;;;;;;;5.38;1.20;;;6.30;99.90;;;;;;6124604;23;20018;-90
2021/12/02 04:02:45;;;;;;;9.40;1.60;;;5.00;99.90;;;;;;6100762;23;20018;-90
2021/12/02 04:05:10;;;;;;;4.45;0.80;;;7.50;99.90;;;;;;6099933;23;20024;-90
2021/12/02 04:07:36;;;;;;;9.70;1.25;;;6.30;99.90;;;;;;6100029;23;20073;-90
2021/12/02 04:10:03;;;;;;;2.80;0.75;;;6.50;99.90;;;;;;6100698;23;20022;-90
2021/12/02 04:16:33;;;;;;;;;;;;;;;;;;;;;
2021/12/02 04:19:00;;;;;;;3.53;0.80;;;2.80;99.90;;;;;;6058666;23;20017;-90
2021/12/02 04:21:29;;;;;;;7.68;0.70;;;;;;;;;;6105919;23;20031;-91
2021/12/02 04:31:27;;;;;;;3.85;1.10;;;5.60;99.90;;;;;;6094991;23;20026;-91
2021/12/02 04:33:55;;;;;;;5.32;0.68;;;6.70;99.90;;;;;;6098702;23;20392;-91
2021/12/02 04:36:21;;;;;;;3.38;1.05;;;6.70;99.90;;;;;;6105887;23;20344;-91
2021/12/02 04:38:47;;;;;;;4.78;1.00;;;3.20;99.90;;;;;;6105702;23;20022;-90
2021/12/02 04:41:15;;;;;;;6.03;0.90;;;8.10;99.90;;;;;;6105664;23;20014;-90
2021/12/02 04:43:41;;;;;;;20.65;1.42;;;7.70;99.90;;;;;;6105656;23;20024;-90
2021/12/02 04:46:07;;;;;;;11.70;1.20;;;6.80;99.90;;;;;;6106152;23;20436;-90
2021/12/02 04:48:33;;;;;;;5.60;1.42;;;3.70;99.90;;;;;;6107110;23;20475;-90
2021/12/02 04:50:59;;;;;;;2.95;0.95;;;8.70;99.90;;;;;;6107517;23;20367;-89
2021/12/02 04:53:25;;;;;;;6.20;1.20;;;5.50;99.90;;;;;;6107305;23;20017;-89
2021/12/02 04:55:51;;;;;;;4.90;0.95;;;7.50;99.90;;;;;;6107381;23;20060;-90
2021/12/02 04:58:17;;;;;;;4.28;0.63;;;5.60;99.90;;;;;;6107246;23;20018;-90
2021/12/02 05:00:43;;;;;;;4.90;0.98;;;5.10;99.90;;;;;;6107228;23;20019;-89
2021/12/02 05:03:09;;;;;;;4.10;0.85;;;6.60;99.90;;;;;;6106648;23;20021;-89
2021/12/02 05:05:34;;;;;;;6.63;1.10;;;6.50;99.90;;;;;;6107140;23;20324;-89
2021/12/02 05:08:03;;;;;;;8.13;0.90;;;6.00;99.90;;;;;;6107020;23;20014;-89
2021/12/02 05:10:28;;;;;;;4.75;0.90;;;7.00;99.90;;;;;;6106586;23;20348;-89
2021/12/02 05:12:54;;;;;;;33.38;2.05;;;5.70;99.90;;;;;;6105424;23;20021;-90
2021/12/02 05:15:20;;;;;;;9.25;1.10;;;5.20;99.90;;;;;;6106418;23;20384;-90
2021/12/02 05:17:47;;;;;;;7.70;1.27;;;;;;;;;;6155289;23;20022;-90
2021/12/02 05:20:12;;;;;;;3.00;0.90;;;5.30;99.90;;;;;;6131026;23;20017;-90
2021/12/02 05:22:38;;;;;;;4.47;1.23;;;6.60;99.90;;;;;;6107037;23;20056;-90
2021/12/02 05:25:05;;;;;;;7.15;1.08;;;6.30;99.90;;;;;;6107128;23;20014;-90
2021/12/02 05:27:30;;;;;;;1.60;0.60;;;2.80;99.90;;;;;;6106603;23;20294;-89
2021/12/02 05:29:56;;;;;;;3.45;1.13;;;5.60;99.90;;;;;;6107209;23;20024;-89
2021/12/02 05:32:22;;;;;;;0.65;0.50;;;8.10;99.90;;;;;;6106649;23;20092;-89
2021/12/02 05:34:50;;;;;;;6.82;1.08;;;6.50;99.90;;;;;;6106651;23;20065;-90
2021/12/02 05:37:16;;;;;;;1.23;0.63;;;5.30;99.90;;;;;;6106481;23;20017;-90
2021/12/02 05:39:43;;;;;;;4.05;0.60;;;5.00;99.90;;;;;;6107004;23;20013;-89
2021/12/02 05:42:10;;;;;;;2.55;0.52;;;8.60;99.90;;;;;;6106812;23;20029;-90
2021/12/02 05:44:36;;;;;;;2.80;0.82;;;6.10;99.90;;;;;;6106561;23;20053;-89
2021/12/02 05:47:01;;;;;;;0.55;0.52;;;6.30;99.90;;;;;;6106739;23;20021;-90
2021/12/02 05:49:27;;;;;;;2.75;0.77;;;5.00;99.90;;;;;;6106401;23;20114;-89
2021/12/02 05:51:53;;;;;;;2.03;0.70;;;6.20;99.90;;;;;;6155736;23;20105;-90
2021/12/02 05:54:19;;;;;;;2.88;0.73;;;6.90;99.90;;;;;;6106811;23;20401;-89
2021/12/02 05:56:45;;;;;;;5.38;0.80;;;4.80;99.90;;;;;;6106055;23;20052;-89
2021/12/02 05:59:11;;;;;;;1.50;0.60;;;6.60;99.90;;;;;;6105987;23;20013;-89
2021/12/02 06:01:41;;;;;;;4.22;0.60;;;7.10;99.90;;;;;;6106493;23;20024;-89
2021/12/02 06:04:08;;;;;;;2.63;0.88;;;5.00;99.90;;;;;;6106830;23;20052;-90
2021/12/02 06:06:34;;;;;;;6.25;0.90;;;5.30;99.90;;;;;;6107087;23;20321;-90
2021/12/02 06:09:00;;;;;;;2.53;0.80;;;5.50;99.90;;;;;;6107156;23;20033;-91
2021/12/02 06:11:29;;;;;;;2.97;0.98;;;7.70;99.90;;;;;;6107196;23;20032;-91
2021/12/02 06:13:55;;;;;;;9.07;1.02;;;6.90;99.90;;;;;;6106427;23;20400;-90
2021/12/02 06:16:21;;;;;;;4.68;1.17;;;5.30;99.90;;;;;;6106917;23;20024;-91
2021/12/02 06:18:47;;;;;;;8.23;1.15;;;7.30;99.90;;;;;;6106634;23;20024;-90
2021/12/02 06:21:13;;;;;;;4.25;1.02;;;7.30;99.90;;;;;;6106371;23;20018;-89
2021/12/02 06:23:40;;;;;;;8.13;1.20;;;7.20;99.90;;;;;;6106212;23;20057;-90
2021/12/02 06:26:08;;;;;;;12.07;1.20;;;5.60;99.90;;;;;;6105988;23;20037;-90
2021/12/02 06:28:33;;;;;;;5.72;1.30;;;6.00;99.90;;;;;;6130432;23;20025;-89
2021/12/02 06:31:02;;;;;;;6.65;0.90;;;6.60;99.90;;;;;;6155429;23;20386;-90
2021/12/02 06:33:33;;;;;;;4.35;1.15;;;7.70;99.90;;;;;;6106332;23;20270;-90
2021/12/02 06:35:59;;;;;;;11.30;1.60;;;7.40;99.90;;;;;;6106277;23;20041;-89
2021/12/02 06:38:24;;;;;;;3.65;1.00;;;6.80;99.90;;;;;;6106462;23;20440;-89
2021/12/02 06:40:51;;;;;;;5.68;0.90;;;8.40;99.90;;;;;;6106231;23;20029;-90
2021/12/02 06:43:17;;;;;;;14.68;1.77;;;8.30;99.90;;;;;;6106145;23;20013;-90
2021/12/02 06:45:43;;;;;;;4.18;0.88;;;6.40;99.90;;;;;;6130311;23;20120;-90
2021/12/02 06:48:09;;;;;;;5.78;0.93;;;5.40;99.90;;;;;;6130587;23;20021;-90
2021/12/02 06:50:37;;;;;;;8.07;1.13;;;6.10;99.90;;;;;;6106325;23;20028;-91
2021/12/02 06:53:06;;;;;;;5.68;0.93;;;6.00;99.90;;;;;;6106340;23;20029;-91
2021/12/02 06:55:32;;;;;;;7.18;1.38;;;4.90;99.90;;;;;;6155601;23;20018;-91
2021/12/02 06:57:58;;;;;;;4.25;0.98;;;6.70;99.90;;;;;;6106195;23;20024;-90
2021/12/02 07:00:25;;;;;;;3.85;0.90;;;7.60;99.90;;;;;;6106408;23;20100;-90
2021/12/02 07:02:52;;;;;;;5.22;1.23;;;6.00;99.90;;;;;;6106651;23;20375;-92
2021/12/02 07:05:19;;;;;;;4.40;0.90;;;3.30;99.90;;;;;;6106061;23;20021;-89
2021/12/02 07:07:46;;;;;;;2.90;0.88;;;4.30;99.90;;;;;;6105787;23;20029;-89
2021/12/02 07:10:13;;;;;;;1.92;0.68;;;7.10;99.90;;;;;;6105716;23;20053;-88
2021/12/02 07:13:34;;;;;;;2.15;0.70;;;3.90;99.90;;;;;;6103774;23;20017;-92
2021/12/02 07:17:04;;;;;;;7.35;1.08;;;6.40;99.90;;;;;;6077473;23;20503;-92
2021/12/02 07:19:30;;;;;;;0.95;0.63;;;4.90;99.90;;;;;;6081798;23;20074;-96
2021/12/02 07:21:56;;;;;;;5.32;0.77;;;7.50;99.90;;;;;;6077090;23;20021;-91
2021/12/02 07:24:23;;;;;;;4.43;1.08;;;3.20;99.90;;;;;;6077119;23;20029;-87
2021/12/02 07:26:49;;;;;;;3.20;0.85;;;6.80;99.90;;;;;;6101636;23;20018;-91
2021/12/02 07:29:21;;;;;;;7.43;0.90;;;2.90;99.90;;;;;;6077637;23;20076;-94
2021/12/02 07:32:36;;;;;;;7.30;1.00;;;4.20;99.90;;;;;;6101673;23;20101;-91
2021/12/02 07:36:02;;;;;;;4.13;0.80;;;3.30;99.90;;;;;;6072276;23;20022;-93
2021/12/02 07:39:17;;;;;;;3.83;0.95;;;3.10;99.90;;;;;;6071554;23;20014;-94
2021/12/02 07:45:34;;;;;;;4.95;1.30;;;4.50;99.90;;;;;;6127537;23;20021;-92
2021/12/02 07:48:01;;;;;;;3.45;0.90;;;6.80;99.90;;;;;;6077034;23;20018;-90
2021/12/02 07:54:41;;;;;;;8.43;1.15;;;5.90;99.90;;;;;;6010001;23;20046;-92
2021/12/02 07:57:30;;;;;;;3.13;0.90;;;4.40;99.90;;;;;;6010499;23;20024;-92
2021/12/02 08:07:20;;;;;;;2.70;0.60;;;7.20;99.90;;;;;;6010117;23;20036;-95
2021/12/02 08:09:52;;;;;;;3.25;0.70;;;5.40;99.90;;;;;;5962568;23;20467;-93
2021/12/02 08:24:02;;;;;;;3.88;0.95;;;6.30;99.90;;;;;;5979248;24;20060;-95
2021/12/02 08:26:43;;;;;;;8.07;0.98;;;5.30;99.90;;;;;;6036928;23;20032;-95
2021/12/02 08:45:20;;;;;;;5.47;0.90;;;5.30;99.90;;;;;;6071155;23;20058;-92
2021/12/02 08:47:56;;;;;;;8.73;1.27;;;5.60;99.90;;;;;;6042516;23;20019;-88
2021/12/02 08:51:26;;;;;;;8.00;1.35;;;5.10;99.90;;;;;;6066177;23;20117;-92
2021/12/02 08:53:51;;;;;;;8.93;1.10;;;4.30;99.90;;;;;;6018191;23;20019;-91
2021/12/02 08:56:17;;;;;;;7.93;1.27;;;7.40;99.90;;;;;;6092186;23;20045;-92
2021/12/02 08:58:45;;;;;;;3.78;1.00;;;8.40;99.90;;;;;;6105130;23;20022;-91
2021/12/02 09:01:37;;;;;;;;;;;;;;;;;;;;;
2021/12/02 09:04:06;;;;;;;6.53;1.30;;;4.80;99.90;;;;;;6125731;23;20053;-89
2021/12/02 09:09:46;;;;;;;2.17;0.88;;;6.60;99.90;;;;;;6130644;23;20025;-95
2021/12/02 09:12:27;;;;;;;5.80;0.88;;;4.00;99.90;;;;;;6110062;23;20017;-87
2021/12/02 09:14:53;;;;;;;3.10;1.05;;;8.40;99.90;;;;;;6129052;23;20020;-87
2021/12/02 09:17:19;;;;;;;3.13;0.95;;;7.70;99.90;;;;;;6129654;23;20018;-86
2021/12/02 09:19:48;;;;;;;3.45;1.10;;;7.30;99.90;;;;;;6131363;23;20048;-94
2021/12/02 09:22:49;;;;;;;10.38;1.63;;;5.50;99.90;;;;;;6107084;23;20014;-93
2021/12/02 09:32:36;;;;;;;5.28;0.90;;;6.20;99.90;;;;;;6116323;23;19947;-89
2021/12/02 09:35:03;;;;;;;4.72;1.10;;;5.80;99.90;;;;;;6156269;23;20018;-93
2021/12/02 09:37:38;;;;;;;3.72;1.10;;;6.00;99.90;;;;;;6131552;23;20096;-93
2021/12/02 09:40:11;;;;;;;4.80;1.38;;;7.20;99.90;;;;;;6131482;23;20018;-95
2021/12/02 09:42:46;;;;;;;2.63;1.02;;;5.90;99.90;;;;;;6133794;23;20024;-93
2021/12/02 09:45:14;;;;;;;4.43;1.30;;;5.20;99.90;;;;;;6131624;23;20017;-89
2021/12/02 09:55:46;;;;;;;9.43;1.33;;;6.80;99.90;;;;;;6054460;23;20015;-89
2021/12/02 09:58:28;;;;;;;5.28;0.98;;;6.70;99.90;;;;;;6106191;23;20064;-90
2021/12/02 10:01:12;;;;;;;1.75;0.90;;;7.50;99.90;;;;;;6130987;23;20401;-89
2021/12/02 10:03:40;;;;;;;6.63;1.42;;;6.20;99.90;;;;;;6106222;23;20057;-91
2021/12/02 10:19:31;;;;;;;7.53;1.48;;;6.10;99.90;;;;;;6131083;23;20314;-91
2021/12/02 10:22:09;;;;;;;5.70;1.33;;;6.40;99.90;;;;;;6130510;23;20021;-90
2021/12/02 10:24:43;;;;;;;2.72;1.00;;;5.10;99.90;;;;;;6106359;23;20013;-90
2021/12/02 10:27:10;;;;;;;6.22;1.30;;;5.00;99.90;;;;;;6106598;23;20024;-91
2021/12/02 10:29:39;;;;;;;2.55;1.17;;;5.30;99.90;;;;;;6107201;23;20024;-91
2021/12/02 10:32:12;;;;;;;3.03;1.10;;;7.60;99.90;;;;;;6131576;23;20424;-91
2021/12/02 10:34:49;;;;;;;4.03;0.95;;;6.60;99.90;;;;;;6106908;23;20025;-90
2021/12/02 10:37:17;;;;;;;9.32;1.50;;;7.70;99.90;;;;;;6107029;23;20028;-92
2021/12/02 10:39:56;;;;;;;10.85;1.13;;;5.90;99.90;;;;;;6106067;23;20388;-91
2021/12/02 10:42:23;;;;;;;6.72;1.38;;;5.60;99.90;;;;;;6131306;23;20014;-92
2021/12/02 10:44:49;;;;;;;6.72;1.60;;;7.20;99.90;;;;;;6106159;23;20021;-91
2021/12/02 10:47:16;;;;;;;6.55;1.17;;;6.00;99.90;;;;;;6131226;23;20099;-88
2021/12/02 10:49:46;;;;;;;6.10;1.15;;;6.00;99.90;;;;;;6130426;23;20413;-85
2021/12/02 10:52:16;;;;;;;6.28;1.30;;;7.30;99.90;;;;;;6130186;23;20130;-86
2021/12/02 10:54:46;;;;;;;12.25;1.50;;;6.40;99.90;;;;;;6106468;23;20024;-92
2021/12/02 10:57:15;;;;;;;6.30;1.48;;;4.20;99.90;;;;;;6106327;23;20018;-91
2021/12/02 10:59:48;;;;;;;8.40;1.42;;;7.40;99.90;;;;;;6106561;23;20052;-91
2021/12/02 11:02:17;;;;;;;5.45;1.45;;;6.50;99.90;;;;;;6131261;23;20017;-93
2021/12/02 11:04:47;;;;;;;6.45;1.30;;;8.30;99.90;;;;;;6106751;23;20321;-91
2021/12/02 11:07:22;;;;;;;7.05;1.40;;;8.20;99.90;;;;;;6106739;23;20033;-91
2021/12/02 11:09:50;;;;;;;4.72;1.27;;;6.40;99.90;;;;;;6131002;23;20488;-91
2021/12/02 11:12:18;;;;;;;10.90;2.53;;;6.90;99.90;;;;;;6107060;23;20018;-88
2021/12/02 11:19:20;;;;;;;9.75;1.73;;;6.90;99.90;;;;;;5981936;23;20112;-88
2021/12/02 11:21:46;;;;;;;5.10;1.00;;;6.10;99.90;;;;;;5962738;23;20451;-87
2021/12/02 11:24:31;;;;;;;5.47;1.33;;;6.50;99.90;;;;;;5985422;23;20031;-88
2021/12/02 11:27:10;;;;;;;3.10;1.10;;;8.30;99.90;;;;;;6130366;23;20017;-88
2021/12/02 11:29:58;;;;;;;4.43;1.20;;;6.50;99.90;;;;;;6129769;23;20053;-86
2021/12/02 11:32:40;;;;;;;4.43;1.20;;;6.50;99.90;;;;;;6129776;23;20101;-86
2021/12/02 11:35:12;;;;;;;6.65;1.00;;;6.40;99.90;;;;;;6130241;23;20022;-88
2021/12/02 11:37:41;;;;;;;5.85;1.15;;;6.20;99.90;;;;;;6105395;23;20044;-88
2021/12/02 11:40:10;;;;;;;7.03;0.95;;;7.90;99.90;;;;;;6129740;23;20014;-87
2021/12/02 11:42:38;;;;;;;5.75;1.00;;;6.50;99.90;;;;;;6129676;23;20049;-84
2021/12/02 11:45:05;;;;;;;7.40;1.73;;;7.80;99.90;;;;;;6129509;23;20126;-85
2021/12/02 11:47:31;;;;;;;11.00;1.23;;;6.20;99.90;;;;;;6129589;23;20028;-87
2021/12/02 11:49:57;;;;;;;6.13;1.23;;;6.40;99.90;;;;;;6105082;23;20018;-88
2021/12/02 11:52:23;;;;;;;7.18;1.10;;;6.00;99.90;;;;;;6105704;23;20068;-89
2021/12/02 11:54:49;;;;;;;5.53;1.40;;;6.80;99.90;;;;;;6105494;23;20344;-87
2021/12/02 11:57:15;;;;;;;3.17;0.73;;;6.10;99.90;;;;;;6129102;23;20080;-85
2021/12/02 11:59:41;;;;;;;4.82;1.92;;;7.40;99.90;;;;;;6129865;23;20017;-89
2021/12/02 12:02:07;;;;;;;7.45;1.30;;;8.10;99.90;;;;;;6129793;23;20017;-87
2021/12/02 12:04:38;;;;;;;4.85;1.00;;;8.00;99.90;;;;;;6128658;23;20021;-84
2021/12/02 12:07:11;;;;;;;6.97;1.00;;;6.40;99.90;;;;;;6129744;23;20020;-88
2021/12/02 12:09:37;;;;;;;4.50;1.10;;;6.00;99.90;;;;;;6130396;23;20029;-87
2021/12/02 12:12:04;;;;;;;3.42;1.00;;;7.60;99.90;;;;;;6129774;23;20013;-89
2021/12/02 12:14:37;;;;;;;6.45;1.10;;;6.00;99.90;;;;;;6105160;23;20017;-87
2021/12/02 12:17:06;;;;;;;1.58;0.73;;;6.10;99.90;;;;;;6131266;23;20176;-88
2021/12/02 12:19:41;;;;;;;7.30;0.85;;;7.00;99.90;;;;;;6105749;23;20056;-88
2021/12/02 12:22:12;;;;;;;3.63;1.25;;;7.80;99.90;;;;;;6130427;23;20092;-89
2021/12/02 12:24:42;;;;;;;4.65;1.20;;;6.00;99.90;;;;;;6155481;23;20025;-86
2021/12/02 12:27:18;;;;;;;3.72;0.90;;;6.20;99.90;;;;;;6129375;23;20352;-84
2021/12/02 12:29:47;;;;;;;5.45;1.85;;;6.00;99.90;;;;;;6129304;23;20028;-87
2021/12/02 12:32:28;;;;;;;3.75;1.20;;;8.20;99.90;;;;;;6129379;23;20021;-87
2021/12/02 12:35:03;;;;;;;5.80;1.17;;;5.90;99.90;;;;;;6129330;23;20474;-89
2021/12/02 12:40:07;;;;;;;4.35;1.20;;;8.20;99.90;;;;;;6129315;23;20331;-86
2021/12/02 12:42:34;;;;;;;6.68;1.50;;;8.20;99.90;;;;;;6104836;23;20027;-87
2021/12/02 12:45:51;;;;;;;6.05;1.17;;;6.70;99.90;;;;;;6129334;23;20018;-86
2021/12/02 12:48:18;;;;;;;9.63;1.20;;;6.30;99.90;;;;;;6129372;23;20025;-89
2021/12/02 12:50:46;;;;;;;2.78;1.08;;;6.30;99.90;;;;;;6129203;23;20017;-87
2021/12/02 12:53:16;;;;;;;7.70;1.80;;;6.40;99.90;;;;;;6130303;23;20014;-89
2021/12/02 12:55:50;;;;;;;9.38;0.93;;;7.90;99.90;;;;;;6105675;23;20028;-90
2021/12/02 12:58:19;;;;;;;7.07;1.10;;;7.80;99.90;;;;;;6109036;23;20127;-89
2021/12/02 13:00:46;;;;;;;5.28;1.42;;;8.20;99.90;;;;;;6132635;23;20018;-88
2021/12/02 13:03:25;;;;;;;8.82;1.48;;;7.30;99.90;;;;;;6129334;23;20021;-85
2021/12/02 13:05:55;;;;;;;5.60;1.08;;;5.40;99.90;;;;;;6104820;23;20057;-86
2021/12/02 13:08:23;;;;;;;3.08;1.00;;;6.00;99.90;;;;;;6131251;23;20348;-86
2021/12/02 13:10:57;;;;;;;5.32;1.35;;;6.00;99.90;;;;;;6131108;23;20032;-85
2021/12/02 13:13:27;;;;;;;3.67;0.90;;;6.00;99.90;;;;;;6154921;23;20051;-87
2021/12/02 13:16:07;;;;;;;2.88;0.77;;;6.00;99.90;;;;;;6106975;23;20021;-86
2021/12/02 13:18:36;;;;;;;5.78;1.20;;;5.90;99.90;;;;;;6130587;23;20181;-84
2021/12/02 13:21:20;;;;;;;7.38;1.38;;;7.80;99.90;;;;;;6130809;23;20131;-84
2021/12/02 13:24:00;;;;;;;5.15;0.98;;;5.90;99.90;;;;;;6130668;23;20024;-85
2021/12/02 13:26:28;;;;;;;10.00;1.20;;;5.90;99.90;;;;;;6155463;23;20028;-87
2021/12/02 13:28:57;;;;;;;4.03;1.20;;;6.00;99.90;;;;;;6106542;23;20100;-87
2021/12/02 13:31:26;;;;;;;7.35;1.52;;;5.10;99.90;;;;;;6106526;23;20037;-86
2021/12/02 13:33:55;;;;;;;4.30;1.20;;;5.60;99.90;;;;;;6130635;23;20113;-87
2021/12/02 13:36:36;;;;;;;9.40;1.02;;;5.30;99.90;;;;;;6107180;23;20072;-87
2021/12/02 13:39:05;;;;;;;2.33;0.90;;;4.90;99.90;;;;;;6130677;23;20014;-85
2021/12/02 13:41:38;;;;;;;8.13;1.55;;;5.80;99.90;;;;;;6130717;23;20029;-86
2021/12/02 13:44:09;;;;;;;3.63;1.23;;;5.10;99.90;;;;;;6130928;23;20352;-84
2021/12/02 13:46:39;;;;;;;3.38;0.98;;;5.40;99.90;;;;;;6106860;23;20340;-85
2021/12/02 13:49:11;;;;;;;8.40;1.00;;;5.30;99.90;;;;;;6130800;23;20021;-86
2021/12/02 13:54:29;;;;;;;3.53;1.00;;;5.00;99.90;;;;;;6131153;23;20030;-86
2021/12/02 13:56:57;;;;;;;11.57;1.77;;;5.30;99.90;;;;;;6130543;23;20021;-86
2021/12/02 13:59:26;;;;;;;2.65;1.00;;;7.00;99.90;;;;;;6130455;23;20025;-84
2021/12/02 14:01:55;;;;;;;8.77;1.48;;;6.00;99.90;;;;;;6130643;23;20018;-85
2021/12/02 14:04:22;;;;;;;11.60;1.17;;;7.60;99.90;;;;;;6129411;23;20554;-86
2021/12/02 14:06:48;;;;;;;9.25;1.88;;;5.40;99.90;;;;;;6106289;23;20479;-87
2021/12/02 14:09:17;;;;;;;6.72;1.42;;;5.60;99.90;;;;;;6130472;23;20029;-86
2021/12/02 14:11:44;;;;;;;14.98;1.48;;;6.30;99.90;;;;;;6106237;23;20020;-85
2021/12/02 14:14:18;;;;;;;10.30;1.30;;;6.90;99.90;;;;;;6130370;23;20376;-88
2021/12/02 14:16:44;;;;;;;7.30;1.23;;;5.80;99.90;;;;;;6130931;23;20056;-90
2021/12/02 14:19:11;;;;;;;1.80;0.82;;;7.80;99.90;;;;;;6104434;23;20013;-85
2021/12/02 14:21:40;;;;;;;13.75;1.55;;;8.50;99.90;;;;;;6129711;23;20101;-88
2021/12/02 14:24:06;;;;;;;4.90;1.10;;;6.40;99.90;;;;;;6130584;23;20017;-86
2021/12/02 14:26:32;;;;;;;10.57;1.42;;;5.90;99.90;;;;;;6106127;23;20018;-87
2021/12/02 14:28:59;;;;;;;8.20;1.48;;;6.10;99.90;;;;;;6130701;23;20168;-89
2021/12/02 14:31:32;;;;;;;4.90;1.20;;;6.60;99.90;;;;;;6106216;23;20025;-88
2021/12/02 14:34:03;;;;;;;4.82;1.25;;;6.10;99.90;;;;;;6106291;23;20096;-87
2021/12/02 14:36:41;;;;;;;3.10;0.98;;;7.80;99.90;;;;;;6155024;23;20017;-87
2021/12/02 14:39:09;;;;;;;7.55;1.10;;;6.00;99.90;;;;;;6130279;23;20017;-90
2021/12/02 14:41:38;;;;;;;4.82;1.23;;;6.20;99.90;;;;;;6105971;23;20013;-86
2021/12/02 14:44:04;;;;;;;6.22;1.25;;;5.90;99.90;;;;;;6130544;23;20009;-86
2021/12/02 14:46:33;;;;;;;8.90;1.20;;;7.70;99.90;;;;;;6105809;23;20116;-85
2021/12/02 14:49:03;;;;;;;5.05;1.13;;;8.00;99.90;;;;;;6155067;23;20068;-84
2021/12/02 14:51:29;;;;;;;6.03;1.70;;;6.20;99.90;;;;;;6130215;23;20021;-85
2021/12/02 14:53:58;;;;;;;7.47;1.33;;;6.10;99.90;;;;;;6105604;23;20017;-86
2021/12/02 14:56:34;;;;;;;8.40;1.10;;;6.50;99.90;;;;;;6130461;23;20104;-88
2021/12/02 14:59:12;;;;;;;5.07;1.10;;;5.90;99.90;;;;;;6106043;23;20344;-87
2021/12/02 15:02:01;;;;;;;12.95;1.10;;;5.90;99.90;;;;;;6130600;23;20342;-86
2021/12/02 15:04:30;;;;;;;6.68;1.45;;;6.10;99.90;;;;;;6105864;23;20021;-88
2021/12/02 15:07:05;;;;;;;7.63;1.40;;;6.10;99.90;;;;;;6131561;23;20014;-89
2021/12/02 15:09:44;;;;;;;7.85;1.35;;;5.90;99.90;;;;;;6106180;23;20045;-89
2021/12/02 15:12:22;;;;;;;4.50;0.95;;;5.60;99.90;;;;;;6130278;23;20368;-85
2021/12/02 15:15:03;;;;;;;4.40;0.90;;;5.40;99.90;;;;;;6130025;23;20062;-85
2021/12/02 15:17:34;;;;;;;4.50;1.20;;;5.60;99.90;;;;;;6105950;23;20017;-83
2021/12/02 15:20:11;;;;;;;6.75;1.20;;;5.60;99.90;;;;;;6131239;23;20021;-86
2021/12/02 15:22:38;;;;;;;10.32;1.42;;;4.90;99.90;;;;;;6105955;23;20021;-87
2021/12/02 15:25:07;;;;;;;5.88;1.10;;;4.90;99.90;;;;;;6130824;23;20296;-87
2021/12/02 15:27:34;;;;;;;3.63;1.25;;;5.00;99.90;;;;;;6132361;23;20022;-94
2021/12/02 15:30:00;;;;;;;7.80;1.70;;;5.60;99.90;;;;;;6131168;23;20035;-90
2021/12/02 15:32:27;;;;;;;8.90;1.15;;;4.90;99.90;;;;;;6131865;23;20092;-90